Terminal Aerodrome Forecast
Issued by NWS

Home | Current Version | Previous Version | Text Only | Print | Product List | Glossary On
Versions: 1 2 3 4 5 6 7 8 9 10 11 12 13 14 15 16 17 18 19 20
000
FTUS43 KBIS 221725
TAFMOT
TAF
KMOT 221725Z 2218/2318 29019G28KT P6SM FEW070 FEW200
     FM222300 32017G25KT P6SM FEW050 FEW200
     FM230200 33011KT P6SM FEW045 FEW200
     FM230400 32007KT P6SM SKC
     FM231300 26005KT P6SM FEW080 FEW250=

USA.gov is the U.S. government's official web portal to all federal, state and local government web resources and services.